Time;durP1;ratioP1;P1;durP2;ratioP2;P2;SDS_P1;SDS_P2;PMS_P1;PMS_P2;Temp;Humidity;BMP_temperature;BMP_pressure;BME280_temperature;BME280_humidity;BME280_pressure;Samples;Min_cycle;Max_cycle;Signal;HPM_P1;HPM_P2
2022/04/27 00:00:36;;;;;;;5.10;3.60;;;6.80;99.90;;;;;;5089783;28;20024;-81
2022/04/27 00:03:04;;;;;;;3.88;3.40;;;6.70;99.90;;;;;;5090026;28;20097;-81
2022/04/27 00:05:30;;;;;;;4.45;3.40;;;6.70;99.90;;;;;;5076036;28;20089;-81
2022/04/27 00:07:56;;;;;;;3.28;2.50;;;6.70;99.90;;;;;;5067595;28;20036;-81
2022/04/27 00:10:21;;;;;;;3.33;2.85;;;6.70;99.90;;;;;;5067662;28;20021;-81
2022/04/27 00:12:48;;;;;;;5.60;3.72;;;6.70;99.90;;;;;;5075071;28;20025;-82
2022/04/27 00:15:14;;;;;;;3.78;3.38;;;6.60;99.90;;;;;;5064823;28;20016;-81
2022/04/27 00:17:41;;;;;;;3.60;3.30;;;6.60;99.90;;;;;;5062151;28;20029;-82
2022/04/27 00:20:08;;;;;;;3.22;2.60;;;6.60;99.90;;;;;;5088838;28;20029;-81
2022/04/27 00:22:35;;;;;;;3.83;2.55;;;6.60;99.90;;;;;;5071397;28;20029;-82
2022/04/27 00:25:03;;;;;;;3.10;2.80;;;6.60;99.90;;;;;;5069902;28;20031;-82
2022/04/27 00:27:29;;;;;;;3.13;2.65;;;6.60;99.90;;;;;;5080313;28;20051;-82
2022/04/27 00:29:56;;;;;;;3.00;2.70;;;6.60;99.90;;;;;;5087531;28;20108;-82
2022/04/27 00:32:21;;;;;;;3.78;3.00;;;6.60;99.90;;;;;;5088158;28;20028;-82
2022/04/27 00:34:47;;;;;;;3.28;2.75;;;6.60;99.90;;;;;;5069830;28;20093;-82
2022/04/27 00:37:13;;;;;;;5.40;4.00;;;6.70;99.90;;;;;;5042743;28;20084;-81
2022/04/27 00:39:39;;;;;;;4.93;3.58;;;6.70;99.90;;;;;;5076149;28;20035;-81
2022/04/27 00:42:16;;;;;;;4.68;3.65;;;6.60;99.90;;;;;;5080181;28;20024;-82
2022/04/27 00:44:43;;;;;;;4.95;3.75;;;6.60;99.90;;;;;;5047221;28;20028;-81
2022/04/27 00:47:10;;;;;;;3.72;3.30;;;6.60;99.90;;;;;;5063232;28;20086;-81
2022/04/27 00:49:40;;;;;;;3.47;2.92;;;6.60;99.90;;;;;;5081294;28;20059;-81
2022/04/27 00:52:07;;;;;;;3.17;2.88;;;6.50;99.90;;;;;;5066455;28;20025;-82
2022/04/27 00:54:35;;;;;;;4.13;2.95;;;6.50;99.90;;;;;;5067037;28;20357;-81
2022/04/27 00:57:01;;;;;;;5.03;3.70;;;6.40;99.90;;;;;;5085405;28;20016;-82
2022/04/27 00:59:27;;;;;;;3.97;3.50;;;6.40;99.90;;;;;;5083521;28;20028;-82
2022/04/27 01:01:52;;;;;;;4.35;3.35;;;6.40;99.90;;;;;;5086505;28;20035;-82
2022/04/27 01:04:19;;;;;;;3.78;3.30;;;6.30;99.90;;;;;;5067340;28;20074;-82
2022/04/27 01:06:45;;;;;;;4.35;3.00;;;6.30;99.90;;;;;;5086786;28;20032;-82
2022/04/27 01:09:11;;;;;;;3.33;2.90;;;6.30;99.90;;;;;;5054421;28;20037;-82
2022/04/27 01:11:38;;;;;;;3.10;2.80;;;6.30;99.90;;;;;;5066700;28;20035;-82
2022/04/27 01:14:03;;;;;;;5.82;3.58;;;6.40;99.90;;;;;;5065718;28;20024;-82
2022/04/27 01:16:29;;;;;;;3.22;2.92;;;6.40;99.90;;;;;;5079829;28;20093;-81
2022/04/27 01:18:55;;;;;;;5.10;3.80;;;6.40;99.90;;;;;;5078903;28;20047;-82
2022/04/27 01:21:22;;;;;;;3.33;3.03;;;6.40;99.90;;;;;;5066563;28;20073;-82
2022/04/27 01:23:48;;;;;;;3.90;3.50;;;6.50;99.90;;;;;;5066469;28;20045;-82
2022/04/27 01:26:13;;;;;;;5.55;4.40;;;6.50;99.90;;;;;;5066261;28;20106;-82
2022/04/27 01:28:39;;;;;;;4.32;3.55;;;6.60;99.90;;;;;;5057218;28;20035;-82
2022/04/27 01:31:08;;;;;;;4.28;3.20;;;6.60;99.90;;;;;;5067855;28;20032;-82
2022/04/27 01:33:34;;;;;;;4.07;3.38;;;6.70;99.90;;;;;;5086429;28;20080;-82
2022/04/27 01:36:01;;;;;;;4.03;3.45;;;6.80;99.90;;;;;;5076683;28;20024;-82
2022/04/27 01:38:32;;;;;;;2.95;2.60;;;6.90;99.90;;;;;;5066727;28;20033;-82
2022/04/27 01:40:58;;;;;;;2.95;2.65;;;7.00;99.90;;;;;;5075876;28;20025;-82
2022/04/27 01:43:24;;;;;;;5.38;4.18;;;7.00;99.90;;;;;;5086474;28;20028;-83
2022/04/27 01:45:53;;;;;;;4.75;3.55;;;7.10;99.90;;;;;;5082388;28;20028;-82
2022/04/27 01:48:19;;;;;;;5.30;3.83;;;7.20;99.90;;;;;;5069173;28;20051;-82
2022/04/27 01:50:45;;;;;;;6.25;4.63;;;7.20;99.90;;;;;;5078264;28;20031;-83
2022/04/27 01:55:56;;;;;;;8.23;5.00;;;7.30;99.90;;;;;;5086452;28;20052;-82
2022/04/27 01:58:22;;;;;;;4.90;4.00;;;7.30;99.90;;;;;;5077377;28;20021;-83
2022/04/27 02:00:48;;;;;;;5.68;4.95;;;7.30;99.90;;;;;;5070430;28;20021;-82
2022/04/27 02:03:18;;;;;;;7.15;5.80;;;7.30;99.90;;;;;;5067169;28;20029;-82
2022/04/27 02:05:45;;;;;;;8.80;6.40;;;7.20;99.90;;;;;;5066425;28;20075;-82
2022/04/27 02:08:12;;;;;;;7.13;6.32;;;7.20;99.90;;;;;;5048173;28;20448;-82
2022/04/27 02:10:38;;;;;;;8.52;6.28;;;7.20;99.90;;;;;;5066292;28;20040;-82
2022/04/27 02:13:08;;;;;;;8.55;6.28;;;7.20;99.90;;;;;;5082862;28;20412;-82
2022/04/27 02:15:56;;;;;;;8.38;6.00;;;7.20;99.90;;;;;;5082412;28;20081;-82
2022/04/27 02:19:14;;;;;;;10.02;7.18;;;7.20;99.90;;;;;;5066183;28;20045;-82
2022/04/27 02:21:53;;;;;;;9.27;6.70;;;7.20;99.90;;;;;;5067225;28;20330;-82
2022/04/27 02:24:49;;;;;;;10.25;6.45;;;7.20;99.90;;;;;;4984430;28;20035;-82
2022/04/27 02:27:14;;;;;;;8.38;6.25;;;7.20;99.90;;;;;;5006172;28;20033;-83
2022/04/27 02:29:41;;;;;;;5.32;4.78;;;7.20;99.90;;;;;;5079633;28;20042;-82
2022/04/27 02:32:07;;;;;;;6.70;5.25;;;7.30;99.90;;;;;;5065981;28;20033;-82
2022/04/27 02:34:32;;;;;;;7.70;5.57;;;7.30;99.90;;;;;;5066184;28;20512;-82
2022/04/27 02:36:58;;;;;;;7.63;5.18;;;7.30;99.90;;;;;;5048224;28;20040;-81
2022/04/27 02:39:24;;;;;;;7.78;6.13;;;7.30;99.90;;;;;;5070241;28;20073;-80
2022/04/27 02:41:49;;;;;;;8.27;5.93;;;7.30;99.90;;;;;;5054462;28;20036;-81
2022/04/27 02:44:15;;;;;;;6.80;5.72;;;7.30;99.90;;;;;;5084406;28;20037;-81
2022/04/27 02:46:41;;;;;;;7.78;5.25;;;7.30;99.90;;;;;;5064995;28;20032;-83
2022/04/27 02:51:53;;;;;;;9.63;6.82;;;7.30;99.90;;;;;;5094426;28;20116;-82
2022/04/27 02:54:21;;;;;;;9.90;7.93;;;7.30;99.90;;;;;;5063482;28;20138;-81
2022/04/27 02:56:48;;;;;;;11.05;7.55;;;7.40;99.90;;;;;;5079829;28;20088;-81
2022/04/27 02:59:14;;;;;;;9.38;7.15;;;7.40;99.90;;;;;;5091201;28;20055;-82
2022/04/27 03:01:40;;;;;;;9.02;7.13;;;7.40;99.90;;;;;;5071841;28;20441;-82
2022/04/27 03:04:06;;;;;;;9.25;7.00;;;7.30;99.90;;;;;;5084431;28;20058;-81
2022/04/27 03:06:32;;;;;;;9.70;7.15;;;7.40;99.90;;;;;;5065217;28;20032;-81
2022/04/27 03:08:58;;;;;;;8.48;6.53;;;7.30;99.90;;;;;;5052733;28;20033;-82
2022/04/27 03:11:24;;;;;;;9.52;7.45;;;7.30;99.90;;;;;;5066931;28;20040;-82
2022/04/27 03:13:50;;;;;;;9.32;7.35;;;7.30;99.90;;;;;;5059398;28;20016;-81
2022/04/27 03:16:16;;;;;;;6.88;6.13;;;7.30;99.90;;;;;;5081856;28;20024;-82
2022/04/27 03:18:42;;;;;;;8.88;6.63;;;7.30;99.90;;;;;;5058621;28;20044;-82
2022/04/27 03:21:09;;;;;;;8.65;6.07;;;7.30;99.90;;;;;;5077446;28;20024;-83
2022/04/27 03:23:35;;;;;;;8.20;6.38;;;7.40;99.90;;;;;;5065303;28;20024;-82
2022/04/27 03:26:01;;;;;;;11.18;8.27;;;7.40;99.90;;;;;;5068959;28;20098;-81
2022/04/27 03:28:26;;;;;;;14.80;8.27;;;7.40;99.90;;;;;;5081826;28;20036;-82
2022/04/27 03:30:52;;;;;;;11.05;8.57;;;7.40;99.90;;;;;;5083469;28;20052;-81
2022/04/27 03:33:18;;;;;;;10.52;7.45;;;7.40;99.90;;;;;;5083664;28;20025;-82
2022/04/27 03:35:47;;;;;;;7.95;6.40;;;7.40;99.90;;;;;;5072544;28;20050;-83
2022/04/27 03:38:15;;;;;;;9.73;7.78;;;7.40;99.90;;;;;;5060540;28;20231;-83
2022/04/27 03:41:02;;;;;;;11.07;8.32;;;7.40;99.90;;;;;;5046280;28;20128;-83
2022/04/27 03:43:28;;;;;;;12.80;9.82;;;7.40;99.90;;;;;;5027065;28;20021;-84
2022/04/27 03:45:54;;;;;;;10.85;8.50;;;7.50;99.90;;;;;;5058238;28;20036;-84
2022/04/27 03:48:19;;;;;;;9.00;7.60;;;7.40;99.90;;;;;;5071780;28;20021;-84
2022/04/27 03:50:45;;;;;;;10.90;7.50;;;7.40;99.90;;;;;;5071910;28;20036;-83
2022/04/27 03:53:11;;;;;;;7.72;6.45;;;7.40;99.90;;;;;;5069553;28;20024;-84
2022/04/27 03:55:37;;;;;;;12.57;8.25;;;7.50;99.90;;;;;;5077719;28;20044;-83
2022/04/27 03:58:04;;;;;;;12.20;8.40;;;7.50;99.90;;;;;;5077529;28;20154;-84
2022/04/27 04:00:29;;;;;;;9.15;7.40;;;7.50;99.90;;;;;;5087927;28;20025;-83
2022/04/27 04:02:57;;;;;;;8.70;6.80;;;7.50;99.90;;;;;;5067295;28;20416;-84
2022/04/27 04:05:23;;;;;;;10.27;7.43;;;7.50;99.90;;;;;;5079901;28;20079;-83
2022/04/27 04:07:51;;;;;;;7.78;6.32;;;7.50;99.90;;;;;;5087558;28;20117;-83
2022/04/27 04:10:17;;;;;;;8.73;7.05;;;7.50;99.90;;;;;;5086564;28;20079;-82
2022/04/27 04:12:47;;;;;;;11.27;9.05;;;7.60;99.90;;;;;;5089454;28;20036;-82
2022/04/27 04:15:13;;;;;;;10.70;8.52;;;7.60;99.90;;;;;;5058654;28;20021;-82
2022/04/27 04:17:48;;;;;;;10.55;8.43;;;7.60;99.90;;;;;;5068691;28;20024;-82
2022/04/27 04:20:17;;;;;;;11.68;7.90;;;7.60;99.90;;;;;;5058040;28;20031;-81
2022/04/27 04:22:43;;;;;;;12.48;8.82;;;7.50;99.90;;;;;;5069241;28;20017;-82
2022/04/27 04:30:40;;;;;;;12.50;9.90;;;7.60;99.90;;;;;;5074712;28;20142;-80
2022/04/27 04:33:06;;;;;;;13.55;10.05;;;7.50;99.90;;;;;;5073347;28;20024;-82
2022/04/27 04:35:32;;;;;;;13.07;8.65;;;7.50;99.90;;;;;;5070871;28;20032;-83
2022/04/27 04:37:58;;;;;;;11.85;9.70;;;7.60;99.90;;;;;;5080255;28;20029;-81
2022/04/27 04:40:23;;;;;;;14.65;9.32;;;7.50;99.90;;;;;;5066015;28;20051;-81
2022/04/27 04:42:49;;;;;;;13.07;10.25;;;7.50;99.90;;;;;;5084907;28;20043;-81
2022/04/27 04:45:15;;;;;;;13.73;10.32;;;7.50;99.90;;;;;;5086664;22;20033;-83
2022/04/27 04:47:44;;;;;;;12.63;9.25;;;7.50;99.90;;;;;;5036463;28;20071;-80
2022/04/27 04:50:11;;;;;;;11.45;8.07;;;7.50;99.90;;;;;;5050606;28;20017;-81
2022/04/27 04:52:37;;;;;;;16.23;12.27;;;7.60;99.90;;;;;;5040589;28;20469;-82
2022/04/27 04:55:03;;;;;;;13.43;10.18;;;7.60;99.90;;;;;;5041380;28;20025;-81
2022/04/27 04:57:29;;;;;;;12.75;9.68;;;7.60;99.90;;;;;;5039612;28;20371;-81
2022/04/27 04:59:55;;;;;;;10.77;8.25;;;7.70;99.90;;;;;;5039872;28;20032;-81
2022/04/27 05:02:21;;;;;;;9.45;7.20;;;7.80;99.90;;;;;;5020641;28;20025;-80
2022/04/27 05:04:47;;;;;;;9.50;7.45;;;7.90;99.90;;;;;;5039482;28;20397;-80
2022/04/27 05:07:12;;;;;;;9.85;7.38;;;8.00;99.90;;;;;;5039204;28;20090;-80
2022/04/27 05:09:38;;;;;;;7.85;6.20;;;8.10;99.90;;;;;;5022486;28;20497;-80
2022/04/27 05:12:05;;;;;;;8.93;6.38;;;8.10;99.90;;;;;;5023531;28;20034;-80
2022/04/27 05:14:31;;;;;;;10.02;7.70;;;8.20;99.90;;;;;;5039765;28;20055;-80
2022/04/27 05:16:57;;;;;;;9.00;7.50;;;8.30;99.90;;;;;;5027036;28;20025;-80
2022/04/27 05:19:23;;;;;;;9.15;7.32;;;8.20;99.90;;;;;;5046651;28;20029;-81
2022/04/27 05:21:49;;;;;;;11.32;8.73;;;8.30;99.90;;;;;;5038683;28;20482;-82
2022/04/27 05:24:15;;;;;;;10.85;8.57;;;8.30;99.90;;;;;;5025114;28;20475;-81
2022/04/27 05:26:41;;;;;;;11.32;8.77;;;8.40;99.90;;;;;;5009440;28;20032;-81
2022/04/27 05:31:54;;;;;;;13.05;10.07;;;8.50;99.90;;;;;;5061621;28;20096;-80
2022/04/27 05:34:21;;;;;;;14.15;10.38;;;8.50;99.90;;;;;;5061565;28;20025;-82
2022/04/27 05:36:47;;;;;;;11.68;9.07;;;8.60;99.90;;;;;;5060555;28;20071;-82
2022/04/27 05:39:13;;;;;;;12.77;9.15;;;8.60;99.90;;;;;;5054005;28;20022;-82
2022/04/27 05:41:39;;;;;;;10.73;9.10;;;8.70;99.90;;;;;;5040835;28;20025;-81
2022/04/27 05:44:09;;;;;;;12.05;9.90;;;8.80;99.90;;;;;;5041596;28;20410;-81
2022/04/27 05:46:36;;;;;;;12.00;9.45;;;8.90;99.90;;;;;;5042276;28;20033;-80
2022/04/27 05:49:02;;;;;;;12.20;9.38;;;8.90;99.90;;;;;;5033764;28;20048;-80
2022/04/27 05:51:28;;;;;;;11.25;8.75;;;8.90;99.90;;;;;;5061873;28;20027;-80
2022/04/27 05:53:54;;;;;;;10.43;8.18;;;8.90;99.90;;;;;;5059718;28;20108;-81
2022/04/27 05:56:20;;;;;;;14.00;10.18;;;9.10;99.90;;;;;;5050927;28;20068;-81
2022/04/27 05:58:47;;;;;;;13.18;10.02;;;9.20;99.90;;;;;;5057736;28;20478;-80
2022/04/27 06:01:13;;;;;;;12.50;9.23;;;9.30;99.10;;;;;;5057818;28;20028;-80
2022/04/27 06:03:39;;;;;;;10.38;8.30;;;9.30;99.30;;;;;;5068246;28;20033;-81
2022/04/27 06:06:05;;;;;;;14.35;9.68;;;9.30;99.50;;;;;;5057083;28;20035;-80
2022/04/27 06:08:30;;;;;;;17.70;11.63;;;9.30;98.80;;;;;;5071663;28;20025;-82
2022/04/27 06:10:56;;;;;;;13.52;10.55;;;9.30;97.80;;;;;;5071142;28;20032;-82
2022/04/27 06:13:24;;;;;;;13.95;10.45;;;9.10;98.10;;;;;;5052119;28;20018;-81
2022/04/27 06:15:50;;;;;;;15.02;11.48;;;8.90;99.20;;;;;;5063527;28;20029;-81
2022/04/27 06:18:16;;;;;;;14.48;10.95;;;8.80;99.00;;;;;;5033276;28;20024;-80
2022/04/27 06:20:42;;;;;;;13.02;9.82;;;8.60;99.50;;;;;;5026039;28;20030;-80
2022/04/27 06:23:09;;;;;;;13.00;10.88;;;8.50;99.70;;;;;;5046891;28;20033;-81
2022/04/27 06:25:36;;;;;;;15.07;9.85;;;8.50;99.90;;;;;;5050212;28;20099;-82
2022/04/27 06:28:02;;;;;;;11.77;9.85;;;8.70;99.90;;;;;;5035970;28;20021;-82
2022/04/27 06:30:28;;;;;;;11.73;8.80;;;8.90;99.40;;;;;;5050205;28;20071;-82
2022/04/27 06:32:54;;;;;;;10.50;8.55;;;9.10;99.20;;;;;;5067054;28;20096;-81
2022/04/27 06:35:20;;;;;;;8.75;7.22;;;9.40;99.40;;;;;;5066546;28;20009;-81
2022/04/27 06:37:46;;;;;;;7.78;6.63;;;9.60;98.60;;;;;;5063712;28;20017;-81
2022/04/27 06:40:12;;;;;;;12.82;10.05;;;9.90;98.00;;;;;;5064747;28;20060;-81
2022/04/27 06:42:42;;;;;;;11.73;7.90;;;10.10;96.70;;;;;;5063080;28;20389;-80
2022/04/27 06:45:08;;;;;;;8.43;7.28;;;10.20;95.70;;;;;;5046505;28;20025;-80
2022/04/27 06:47:34;;;;;;;7.35;6.20;;;10.30;95.60;;;;;;5023679;28;20045;-82
2022/04/27 06:50:00;;;;;;;8.13;7.32;;;10.30;95.40;;;;;;5048236;28;20038;-79
2022/04/27 06:52:25;;;;;;;12.02;8.40;;;10.20;95.60;;;;;;5042751;28;20346;-81
2022/04/27 06:54:51;;;;;;;10.07;8.77;;;10.20;95.00;;;;;;5044255;28;20021;-80
2022/04/27 06:57:17;;;;;;;10.32;8.35;;;10.20;94.30;;;;;;5043435;28;20104;-81
2022/04/27 06:59:43;;;;;;;9.57;7.55;;;10.20;95.10;;;;;;5026875;28;20022;-82
2022/04/27 07:02:10;;;;;;;8.10;6.93;;;10.30;94.10;;;;;;5028551;28;20067;-82
2022/04/27 07:04:37;;;;;;;10.25;7.78;;;10.50;94.20;;;;;;5042752;28;20033;-81
2022/04/27 07:07:03;;;;;;;10.48;7.60;;;10.80;93.60;;;;;;5042175;28;20029;-82
2022/04/27 07:09:31;;;;;;;9.80;6.20;;;11.00;93.10;;;;;;5017996;28;20072;-80
2022/04/27 07:11:56;;;;;;;8.48;7.57;;;11.20;93.10;;;;;;5040383;28;20065;-79
2022/04/27 07:14:23;;;;;;;7.80;6.78;;;11.30;92.30;;;;;;5029176;28;20020;-79
2022/04/27 07:16:49;;;;;;;7.63;6.60;;;11.30;92.20;;;;;;5043054;28;20024;-80
2022/04/27 07:19:14;;;;;;;7.25;6.38;;;11.40;90.50;;;;;;5048310;28;20096;-80
2022/04/27 07:21:41;;;;;;;6.65;5.78;;;11.40;90.40;;;;;;5054638;28;20037;-79
2022/04/27 07:24:06;;;;;;;5.93;5.32;;;11.40;90.60;;;;;;5037165;28;20452;-80
2022/04/27 07:26:33;;;;;;;4.60;4.05;;;11.50;90.90;;;;;;5039973;28;20033;-82
2022/04/27 07:28:59;;;;;;;7.15;6.28;;;11.70;90.50;;;;;;5040084;28;20430;-79
2022/04/27 07:31:26;;;;;;;9.45;8.07;;;11.80;88.50;;;;;;5021017;28;20053;-80
2022/04/27 07:33:52;;;;;;;9.10;8.18;;;11.70;87.70;;;;;;5040048;28;20017;-81
2022/04/27 07:36:19;;;;;;;8.07;7.22;;;11.40;88.70;;;;;;5036336;28;20054;-80
2022/04/27 07:38:45;;;;;;;7.55;6.03;;;11.20;90.20;;;;;;5018105;28;20434;-79
2022/04/27 07:41:11;;;;;;;6.57;5.68;;;11.30;91.20;;;;;;5020011;28;20041;-79
2022/04/27 07:43:37;;;;;;;8.07;6.90;;;11.60;90.10;;;;;;5020597;28;20026;-79
2022/04/27 07:46:05;;;;;;;6.63;5.70;;;11.90;88.10;;;;;;5029737;28;20084;-78
2022/04/27 07:48:32;;;;;;;9.05;6.40;;;12.00;87.40;;;;;;5038519;28;20035;-78
2022/04/27 07:51:03;;;;;;;6.70;6.00;;;12.00;86.70;;;;;;5037695;28;20053;-78
2022/04/27 07:53:29;;;;;;;6.55;5.30;;;11.90;85.70;;;;;;5049611;28;20082;-79
2022/04/27 07:55:55;;;;;;;6.80;4.53;;;11.80;86.40;;;;;;5058900;28;20048;-80
2022/04/27 07:58:21;;;;;;;5.97;4.85;;;11.80;86.90;;;;;;5069890;28;20029;-80
2022/04/27 08:00:48;;;;;;;6.13;4.82;;;12.00;86.50;;;;;;5065531;28;20116;-80
2022/04/27 08:03:14;;;;;;;5.45;4.90;;;12.30;85.90;;;;;;5019256;28;20030;-80
2022/04/27 08:05:39;;;;;;;5.30;4.80;;;12.80;83.80;;;;;;5022170;28;20471;-80
2022/04/27 08:08:07;;;;;;;4.45;4.05;;;13.10;81.20;;;;;;5024794;28;20042;-80
2022/04/27 08:10:32;;;;;;;6.75;5.50;;;13.40;80.60;;;;;;5023761;28;20403;-80
2022/04/27 08:12:59;;;;;;;4.80;4.30;;;13.50;77.40;;;;;;5020237;28;20041;-81
2022/04/27 08:15:25;;;;;;;4.85;4.18;;;13.50;77.10;;;;;;5020177;28;20029;-80
2022/04/27 08:18:02;;;;;;;6.63;5.30;;;13.20;76.40;;;;;;5020386;28;20021;-80
2022/04/27 08:23:21;;;;;;;5.38;4.63;;;13.40;77.40;;;;;;5038381;28;20121;-80
2022/04/27 08:25:48;;;;;;;4.68;4.18;;;13.80;76.30;;;;;;5042039;28;20400;-79
2022/04/27 08:28:16;;;;;;;3.55;3.20;;;13.90;75.70;;;;;;5040503;28;20077;-80
2022/04/27 08:30:44;;;;;;;3.78;3.47;;;14.00;73.70;;;;;;5044273;28;20018;-80
2022/04/27 08:33:10;;;;;;;4.53;3.63;;;14.00;73.00;;;;;;5031721;28;20069;-80
2022/04/27 08:35:36;;;;;;;4.00;3.20;;;13.90;71.30;;;;;;5003933;28;20042;-79
2022/04/27 08:38:03;;;;;;;2.90;2.70;;;14.00;72.00;;;;;;5020109;28;20054;-80
2022/04/27 08:40:29;;;;;;;4.05;2.80;;;14.20;71.10;;;;;;5022470;28;20032;-80
2022/04/27 08:42:57;;;;;;;6.07;4.72;;;14.20;71.10;;;;;;5019975;28;20033;-80
2022/04/27 08:45:23;;;;;;;6.50;4.65;;;14.10;69.70;;;;;;5019304;28;20514;-80
2022/04/27 08:47:51;;;;;;;7.55;4.78;;;13.70;70.50;;;;;;5017368;28;20064;-79
2022/04/27 08:50:24;;;;;;;6.07;4.40;;;13.30;71.30;;;;;;5016952;28;20030;-80
2022/04/27 08:52:51;;;;;;;4.75;3.83;;;13.00;73.00;;;;;;5041120;28;20067;-80
2022/04/27 08:55:18;;;;;;;3.42;3.10;;;13.40;73.20;;;;;;5052167;28;20351;-80
2022/04/27 08:57:44;;;;;;;2.90;2.70;;;14.10;72.10;;;;;;5057485;28;20035;-79
2022/04/27 09:00:15;;;;;;;2.75;2.30;;;14.70;69.70;;;;;;5058388;28;20389;-80
2022/04/27 09:02:41;;;;;;;4.45;3.95;;;14.60;68.10;;;;;;5058262;28;20381;-79
2022/04/27 09:05:16;;;;;;;7.10;4.88;;;14.20;67.40;;;;;;5037273;28;20034;-80
2022/04/27 09:07:53;;;;;;;5.55;4.22;;;13.90;68.70;;;;;;5036255;28;20029;-79
2022/04/27 09:10:22;;;;;;;5.60;4.93;;;13.50;71.20;;;;;;5037206;28;20077;-79
2022/04/27 09:12:54;;;;;;;4.90;4.45;;;13.50;70.70;;;;;;5037707;28;20029;-80
2022/04/27 09:15:22;;;;;;;7.15;5.18;;;13.60;71.10;;;;;;5021633;28;20125;-80
2022/04/27 09:20:48;;;;;;;4.05;3.30;;;13.90;70.10;;;;;;5036446;28;20037;-79
2022/04/27 09:23:41;;;;;;;4.38;3.97;;;14.00;68.80;;;;;;5046886;28;20108;-81
2022/04/27 09:26:14;;;;;;;;;;;13.80;68.80;;;;;;5058888;28;20148;-80
2022/04/27 09:28:39;;;;;;;4.43;3.65;;;13.70;68.80;;;;;;5057304;28;19920;-80
2022/04/27 09:31:05;;;;;;;7.20;4.25;;;13.40;69.80;;;;;;5056256;28;20385;-80
2022/04/27 09:33:37;;;;;;;6.18;4.85;;;13.30;70.10;;;;;;5042819;28;20036;-81
2022/04/27 09:36:23;;;;;;;7.00;4.72;;;13.30;70.20;;;;;;5040940;28;20026;-80
2022/04/27 09:38:53;;;;;;;4.53;4.13;;;13.40;71.20;;;;;;5039894;28;20052;-80
2022/04/27 09:41:42;;;;;;;4.28;3.88;;;13.70;69.40;;;;;;5042098;28;20025;-81
2022/04/27 09:44:28;;;;;;;3.42;3.13;;;14.00;67.40;;;;;;5019922;28;20026;-79
2022/04/27 09:46:54;;;;;;;4.65;4.25;;;14.20;66.50;;;;;;5020286;28;20351;-79
2022/04/27 09:49:20;;;;;;;6.82;4.45;;;14.50;65.80;;;;;;5020688;28;20132;-80
2022/04/27 09:51:53;;;;;;;6.00;5.40;;;14.60;66.90;;;;;;5032093;28;20120;-79
2022/04/27 09:54:30;;;;;;;5.00;4.45;;;14.70;66.00;;;;;;5029922;28;20025;-79
2022/04/27 09:57:01;;;;;;;5.50;4.90;;;14.80;66.50;;;;;;5039497;28;20052;-79
2022/04/27 09:59:32;;;;;;;6.72;5.28;;;14.80;66.20;;;;;;5021251;28;20018;-80
2022/04/27 10:02:00;;;;;;;5.40;4.65;;;14.80;66.70;;;;;;5038630;28;20053;-81
2022/04/27 10:04:31;;;;;;;5.47;4.93;;;14.70;67.10;;;;;;5018558;28;20030;-80
2022/04/27 10:07:01;;;;;;;4.38;3.97;;;14.70;65.60;;;;;;5021340;28;20046;-80
2022/04/27 10:09:30;;;;;;;6.57;4.38;;;14.60;65.70;;;;;;5022918;28;20010;-81
2022/04/27 10:11:59;;;;;;;9.57;4.53;;;14.50;66.70;;;;;;5020293;28;20024;-79
2022/04/27 10:14:28;;;;;;;6.43;5.25;;;14.50;67.40;;;;;;5020042;28;20026;-80
2022/04/27 10:16:55;;;;;;;5.78;4.75;;;14.50;66.90;;;;;;5019089;28;20029;-80
2022/04/27 10:19:21;;;;;;;5.10;4.60;;;14.30;67.70;;;;;;5016313;28;20026;-79
2022/04/27 10:21:56;;;;;;;6.10;5.43;;;14.20;69.10;;;;;;5025838;28;20053;-79
2022/04/27 10:24:34;;;;;;;7.63;5.90;;;14.30;68.60;;;;;;5020013;28;20486;-78
2022/04/27 10:27:22;;;;;;;6.53;4.85;;;14.30;69.00;;;;;;5035869;28;20063;-80
2022/04/27 10:29:52;;;;;;;5.10;4.57;;;14.10;70.00;;;;;;5044475;28;20083;-80
2022/04/27 10:32:33;;;;;;;6.13;5.53;;;13.90;70.30;;;;;;5039469;28;20025;-80
2022/04/27 10:35:18;;;;;;;6.82;4.60;;;13.80;70.40;;;;;;5039147;28;20229;-80
2022/04/27 10:37:54;;;;;;;4.13;3.50;;;13.70;71.30;;;;;;5036648;28;20022;-81
2022/04/27 10:40:30;;;;;;;5.88;5.28;;;13.80;72.60;;;;;;5035986;28;20108;-82
2022/04/27 10:43:28;;;;;;;6.07;5.18;;;14.00;70.00;;;;;;5064497;28;20077;-81
2022/04/27 10:45:54;;;;;;;5.57;4.93;;;14.00;70.30;;;;;;5085985;22;20103;-81
2022/04/27 10:48:46;;;;;;;7.93;5.88;;;14.10;70.60;;;;;;5049290;28;20029;-84
2022/04/27 10:51:11;;;;;;;5.03;4.53;;;14.40;68.60;;;;;;5027207;28;20036;-84
2022/04/27 10:53:43;;;;;;;7.57;5.60;;;14.50;69.90;;;;;;5069318;28;20036;-84
2022/04/27 10:56:25;;;;;;;8.18;6.40;;;14.80;68.60;;;;;;5070899;28;20021;-84
2022/04/27 10:58:52;;;;;;;5.32;4.82;;;15.00;65.70;;;;;;5058639;28;20059;-85
2022/04/27 11:01:22;;;;;;;5.55;4.72;;;15.10;65.90;;;;;;5061964;28;20099;-84
2022/04/27 11:04:00;;;;;;;5.25;4.75;;;15.10;66.80;;;;;;5060364;28;20124;-82
2022/04/27 11:06:27;;;;;;;5.32;4.70;;;15.00;66.90;;;;;;5061835;28;20036;-83
2022/04/27 11:09:38;;;;;;;6.88;6.18;;;15.10;67.50;;;;;;5061262;28;20021;-82
2022/04/27 11:12:04;;;;;;;7.20;6.13;;;15.30;66.80;;;;;;5062534;28;20068;-83
2022/04/27 11:14:35;;;;;;;6.95;5.97;;;15.20;66.90;;;;;;5051489;28;20040;-83
2022/04/27 11:17:01;;;;;;;5.40;4.75;;;15.10;65.80;;;;;;5083206;28;20110;-83
2022/04/27 11:19:39;;;;;;;7.32;5.57;;;15.20;64.80;;;;;;5073845;28;20134;-83
2022/04/27 11:22:15;;;;;;;8.95;7.45;;;15.20;65.90;;;;;;5065943;28;20029;-81
2022/04/27 11:24:42;;;;;;;9.02;6.28;;;15.30;66.70;;;;;;5048406;28;20451;-82
2022/04/27 11:27:09;;;;;;;6.20;5.50;;;15.20;66.40;;;;;;5061083;28;20060;-82
2022/04/27 11:29:37;;;;;;;6.03;5.43;;;14.80;66.20;;;;;;5060902;28;20052;-84
2022/04/27 11:32:06;;;;;;;8.95;6.88;;;14.40;67.20;;;;;;5070127;28;20032;-83
2022/04/27 11:34:33;;;;;;;7.13;6.10;;;14.30;68.30;;;;;;5080824;28;20040;-84
2022/04/27 11:37:13;;;;;;;8.18;6.55;;;14.60;69.00;;;;;;5065889;28;20025;-82
2022/04/27 11:39:39;;;;;;;9.00;6.88;;;14.80;67.30;;;;;;5062270;28;20078;-83
2022/04/27 11:42:04;;;;;;;6.45;5.85;;;14.80;66.50;;;;;;5064180;28;20039;-82
2022/04/27 11:44:32;;;;;;;6.72;5.38;;;14.50;66.00;;;;;;5063716;28;20029;-83
2022/04/27 11:46:58;;;;;;;7.95;7.05;;;14.20;67.10;;;;;;5075120;28;20079;-80
2022/04/27 11:49:38;;;;;;;7.43;6.68;;;14.10;67.60;;;;;;5084002;28;20060;-83
2022/04/27 11:52:16;;;;;;;6.22;5.63;;;14.00;69.30;;;;;;5070569;28;20040;-82
2022/04/27 11:54:42;;;;;;;9.43;5.93;;;13.90;71.20;;;;;;5065742;28;20052;-85
2022/04/27 11:57:12;;;;;;;8.65;6.22;;;13.80;71.30;;;;;;5076245;28;20021;-83
2022/04/27 11:59:42;;;;;;;9.57;6.93;;;14.10;71.70;;;;;;5070595;28;20500;-82
2022/04/27 12:02:09;;;;;;;7.45;5.78;;;14.50;69.60;;;;;;5049771;28;20476;-84
2022/04/27 12:04:42;;;;;;;5.80;5.18;;;14.70;68.20;;;;;;5060576;28;20481;-84
2022/04/27 12:07:14;;;;;;;6.82;5.88;;;14.80;66.70;;;;;;5063410;28;20091;-84
2022/04/27 12:09:40;;;;;;;6.85;5.35;;;14.70;66.40;;;;;;5049813;28;20029;-82
2022/04/27 12:12:11;;;;;;;4.72;4.22;;;14.60;66.00;;;;;;5059277;28;20033;-82
2022/04/27 12:14:39;;;;;;;7.25;6.35;;;14.50;67.90;;;;;;5079189;28;20031;-82
2022/04/27 12:17:08;;;;;;;6.95;4.85;;;14.20;68.50;;;;;;5069777;28;20406;-83
2022/04/27 12:19:34;;;;;;;5.25;4.75;;;14.10;69.50;;;;;;5060255;28;20021;-83
2022/04/27 12:22:18;;;;;;;5.55;5.00;;;13.80;69.80;;;;;;5074294;28;20036;-84
2022/04/27 12:24:45;;;;;;;4.30;3.90;;;13.70;70.90;;;;;;5021943;28;20102;-84
2022/04/27 12:27:21;;;;;;;6.05;4.03;;;13.80;71.00;;;;;;5039822;28;20025;-84
2022/04/27 12:29:47;;;;;;;3.58;3.08;;;14.00;68.70;;;;;;5041559;28;20143;-83
2022/04/27 12:32:13;;;;;;;3.97;3.60;;;14.30;68.60;;;;;;5041330;28;20156;-82
2022/04/27 12:37:31;;;;;;;3.50;3.20;;;14.60;67.60;;;;;;5040572;28;20051;-83
2022/04/27 12:40:11;;;;;;;4.38;3.85;;;14.80;66.00;;;;;;5039978;28;20036;-82
2022/04/27 12:42:57;;;;;;;3.08;2.42;;;15.20;65.00;;;;;;5040045;28;20026;-85
2022/04/27 12:45:23;;;;;;;4.43;3.03;;;15.50;65.50;;;;;;5039343;28;20021;-83
2022/04/27 12:47:50;;;;;;;6.60;3.38;;;15.60;64.80;;;;;;5039538;28;20906;-84
2022/04/27 12:50:16;;;;;;;3.17;2.97;;;15.50;63.70;;;;;;5041706;28;20018;-84
2022/04/27 12:52:45;;;;;;;2.58;2.38;;;15.30;63.50;;;;;;5065455;28;20031;-84
2022/04/27 12:55:15;;;;;;;3.60;2.92;;;15.50;64.50;;;;;;5060277;28;20031;-84
2022/04/27 12:57:49;;;;;;;3.03;2.78;;;15.90;62.30;;;;;;5080506;28;20020;-84
2022/04/27 13:00:20;;;;;;;4.40;2.90;;;15.90;61.90;;;;;;5079945;28;20090;-81
2022/04/27 13:02:46;;;;;;;2.80;2.60;;;16.00;61.40;;;;;;5062856;28;20044;-83
2022/04/27 13:05:13;;;;;;;2.75;2.55;;;16.00;61.10;;;;;;5082234;28;20386;-83
2022/04/27 13:07:40;;;;;;;4.97;3.30;;;15.70;60.50;;;;;;5061049;28;20067;-83
2022/04/27 13:12:51;;;;;;;2.70;2.50;;;15.90;62.00;;;;;;5062687;28;20037;-84
2022/04/27 13:15:17;;;;;;;3.03;2.70;;;16.50;59.40;;;;;;5048394;28;20017;-83
2022/04/27 13:17:42;;;;;;;2.95;2.70;;;17.00;57.20;;;;;;5068719;28;20071;-83
2022/04/27 13:20:09;;;;;;;3.85;3.25;;;17.00;57.30;;;;;;5068017;28;20025;-84
2022/04/27 13:22:35;;;;;;;3.17;2.97;;;16.90;57.60;;;;;;5061106;28;20033;-83